createdAt,value
2022-10-05T00:01:53.101Z,13.50
2022-10-05T00:05:54.630Z,13.56
2022-10-05T00:09:59.826Z,13.35
2022-10-05T00:14:01.416Z,13.37
2022-10-05T00:18:09.814Z,13.33
2022-10-05T00:22:21.634Z,13.40
2022-10-05T00:26:25.532Z,13.60
2022-10-05T00:30:32.472Z,13.69
2022-10-05T00:34:34.346Z,13.64
2022-10-05T00:38:35.788Z,13.79
2022-10-05T00:43:01.192Z,13.80
2022-10-05T00:47:19.437Z,13.91
2022-10-05T00:51:26.562Z,13.95
2022-10-05T00:55:55.384Z,13.94
2022-10-05T01:00:08.872Z,13.96
2022-10-05T01:04:21.043Z,13.99
2022-10-05T01:09:03.371Z,14.00
2022-10-05T01:13:43.687Z,14.03
2022-10-05T01:17:57.045Z,13.89
2022-10-05T01:22:18.456Z,14.04
2022-10-05T01:26:46.073Z,14.28
2022-10-05T01:31:10.035Z,14.12
2022-10-05T01:35:24.026Z,14.11
2022-10-05T01:39:33.971Z,14.16
2022-10-05T01:43:54.014Z,14.22
2022-10-05T01:48:09.656Z,14.16
2022-10-05T01:52:25.624Z,14.19
2022-10-05T01:56:43.373Z,14.18
2022-10-05T02:01:04.118Z,14.04
2022-10-05T02:05:13.957Z,13.84
2022-10-05T02:09:25.023Z,13.99
2022-10-05T02:13:39.327Z,13.94
2022-10-05T02:17:51.962Z,13.72
2022-10-05T02:21:59.185Z,14.15
2022-10-05T02:26:03.081Z,14.04
2022-10-05T02:30:12.800Z,13.97
2022-10-05T02:34:36.324Z,13.91
2022-10-05T02:39:08.469Z,13.90
2022-10-05T02:43:32.396Z,13.99
2022-10-05T02:47:45.544Z,14.03
2022-10-05T02:52:02.621Z,13.92
2022-10-05T02:56:18.292Z,14.05
2022-10-05T03:00:22.806Z,13.90
2022-10-05T03:05:07.134Z,13.97
2022-10-05T03:09:09.799Z,13.84
2022-10-05T03:13:42.800Z,13.94
2022-10-05T03:17:56.000Z,13.94
2022-10-05T03:22:10.193Z,13.90
2022-10-05T03:26:17.070Z,14.01
2022-10-05T03:30:23.751Z,14.10
2022-10-05T03:34:44.568Z,14.23
2022-10-05T03:38:55.376Z,14.17
2022-10-05T03:43:17.856Z,14.07
2022-10-05T03:47:39.655Z,14.21
2022-10-05T03:51:55.049Z,14.27
2022-10-05T03:56:14.467Z,14.32
2022-10-05T04:00:19.412Z,14.30
2022-10-05T04:04:52.724Z,14.14
2022-10-05T04:09:09.464Z,14.32
2022-10-05T04:13:30.661Z,14.15
2022-10-05T04:17:40.457Z,14.16
2022-10-05T04:21:52.358Z,14.12
2022-10-05T04:26:02.124Z,14.13
2022-10-05T04:30:12.482Z,13.88
2022-10-05T04:34:33.504Z,14.05
2022-10-05T04:39:01.183Z,14.15
2022-10-05T04:43:29.270Z,14.07
2022-10-05T04:48:00.234Z,14.22
2022-10-05T04:52:16.804Z,14.15
2022-10-05T04:56:27.939Z,14.15
2022-10-05T05:00:52.888Z,14.15
2022-10-05T05:05:20.782Z,14.30
2022-10-05T05:09:50.456Z,14.13
2022-10-05T05:14:06.832Z,14.27
2022-10-05T05:18:36.260Z,14.27
2022-10-05T05:23:10.773Z,14.08
2022-10-05T05:27:34.326Z,14.27
2022-10-05T05:31:57.743Z,14.32
2022-10-05T05:36:20.777Z,14.30
2022-10-05T05:40:34.000Z,14.29
2022-10-05T05:44:44.034Z,14.23
2022-10-05T05:48:47.517Z,14.25
2022-10-05T05:52:59.179Z,14.34
2022-10-05T05:57:22.858Z,14.33
2022-10-05T06:01:43.582Z,14.21
2022-10-05T06:05:52.159Z,14.13
2022-10-05T06:10:01.468Z,14.27
2022-10-05T06:14:28.509Z,14.32
2022-10-05T06:18:32.698Z,14.36
2022-10-05T06:22:39.785Z,14.27
2022-10-05T06:27:04.557Z,14.35
2022-10-05T06:31:29.662Z,14.54
2022-10-05T06:36:03.949Z,14.45
2022-10-05T06:40:18.390Z,14.32
2022-10-05T06:44:33.452Z,14.25
2022-10-05T06:49:21.400Z,14.53
2022-10-05T06:54:21.816Z,14.51
2022-10-05T06:58:43.873Z,14.56
2022-10-05T07:02:54.331Z,14.48
2022-10-05T07:07:14.938Z,14.64
2022-10-05T07:11:59.647Z,14.60
2022-10-05T07:16:18.605Z,14.69
2022-10-05T07:20:30.281Z,14.67
2022-10-05T07:24:34.613Z,14.77
2022-10-05T07:28:55.506Z,14.81
2022-10-05T07:33:17.700Z,14.91
2022-10-05T07:37:55.393Z,14.99
2022-10-05T07:42:33.789Z,15.03
2022-10-05T07:46:50.062Z,15.20
2022-10-05T07:51:32.275Z,15.25
2022-10-05T07:55:39.907Z,15.49
2022-10-05T08:00:01.388Z,15.55
2022-10-05T08:04:14.454Z,15.47
2022-10-05T08:08:27.202Z,15.70
2022-10-05T08:12:31.666Z,15.72
2022-10-05T08:16:37.839Z,15.90
2022-10-05T08:20:51.960Z,16.05
2022-10-05T08:24:59.388Z,16.06
2022-10-05T08:29:13.939Z,16.11
2022-10-05T08:33:18.112Z,16.25
2022-10-05T08:37:24.233Z,16.17
2022-10-05T08:41:46.520Z,16.25
2022-10-05T08:46:03.977Z,16.36
2022-10-05T08:50:17.823Z,16.33
2022-10-05T08:54:25.519Z,16.49
2022-10-05T08:59:04.363Z,16.47
2022-10-05T09:03:20.754Z,16.55
2022-10-05T09:08:12.179Z,16.99
2022-10-05T09:12:37.451Z,16.87
2022-10-05T09:17:21.356Z,16.92
2022-10-05T09:21:43.562Z,16.94
2022-10-05T09:25:59.487Z,16.80
2022-10-05T09:30:16.408Z,17.19
2022-10-05T09:34:55.551Z,17.34
2022-10-05T09:39:15.853Z,17.88
2022-10-05T09:43:57.067Z,18.09
2022-10-05T09:48:22.061Z,18.64
2022-10-05T09:52:55.995Z,18.54
2022-10-05T09:57:47.195Z,18.82
2022-10-05T10:02:14.420Z,18.84
2022-10-05T10:06:47.835Z,18.80
2022-10-05T10:11:11.441Z,18.50
2022-10-05T10:15:42.817Z,18.64
2022-10-05T10:19:46.951Z,18.85
2022-10-05T10:24:03.126Z,18.94
2022-10-05T10:28:29.513Z,18.94
2022-10-05T10:32:36.978Z,18.98
2022-10-05T10:36:59.895Z,19.09
2022-10-05T10:41:35.784Z,18.78
2022-10-05T10:45:45.387Z,18.97
2022-10-05T10:50:07.972Z,19.10
2022-10-05T10:54:12.473Z,19.14
2022-10-05T10:58:43.753Z,19.30
2022-10-05T11:03:17.824Z,19.41
2022-10-05T11:07:58.843Z,19.70
2022-10-05T11:12:06.414Z,19.76
2022-10-05T11:16:30.822Z,19.61
2022-10-05T11:21:02.359Z,19.28
2022-10-05T11:25:33.259Z,19.16
2022-10-05T11:30:14.207Z,19.36
2022-10-05T11:34:25.088Z,19.57
2022-10-05T11:39:03.960Z,19.19
2022-10-05T11:43:41.669Z,18.81
2022-10-05T11:48:04.334Z,18.89
2022-10-05T11:52:12.882Z,18.79
2022-10-05T11:56:23.461Z,18.65
2022-10-05T12:00:36.123Z,18.70
2022-10-05T12:05:04.673Z,18.81
2022-10-05T12:09:24.627Z,18.88
2022-10-05T12:13:52.209Z,19.01
2022-10-05T12:18:08.158Z,19.25
2022-10-05T12:22:25.427Z,19.27
2022-10-05T12:26:36.719Z,19.17
2022-10-05T12:31:05.417Z,18.76
2022-10-05T12:35:47.518Z,18.66
2022-10-05T12:40:02.537Z,19.24
2022-10-05T12:44:39.719Z,19.30
2022-10-05T12:49:18.597Z,19.06
2022-10-05T12:53:32.075Z,19.03
2022-10-05T12:57:55.411Z,18.75
2022-10-05T13:02:02.116Z,19.07
2022-10-05T13:06:17.704Z,18.77
2022-10-05T13:11:01.165Z,18.82
2022-10-05T13:15:19.983Z,19.01
2022-10-05T13:19:52.416Z,18.78
2022-10-05T13:24:11.921Z,19.05
2022-10-05T13:28:21.743Z,18.94
2022-10-05T13:32:27.208Z,19.38
2022-10-05T13:36:39.077Z,19.10
2022-10-05T13:41:25.798Z,19.18
2022-10-05T13:45:38.568Z,19.19
2022-10-05T13:50:07.225Z,19.29
2022-10-05T13:54:22.916Z,18.96
2022-10-05T13:58:45.360Z,19.19
2022-10-05T14:02:56.552Z,19.10
2022-10-05T14:07:21.339Z,19.15
2022-10-05T14:11:36.489Z,18.81
2022-10-05T14:15:42.076Z,18.55
2022-10-05T14:19:48.606Z,18.41
2022-10-05T14:23:51.094Z,18.63
2022-10-05T14:28:24.865Z,18.48
2022-10-05T14:32:30.860Z,18.85
2022-10-05T14:36:43.804Z,18.83
2022-10-05T14:40:45.211Z,18.75
2022-10-05T14:44:59.373Z,18.93
2022-10-05T14:49:24.191Z,18.67
2022-10-05T14:53:37.956Z,18.57
2022-10-05T14:57:56.155Z,18.71
2022-10-05T15:02:23.155Z,18.62
2022-10-05T15:06:39.594Z,18.33
2022-10-05T15:10:52.711Z,18.46
2022-10-05T15:15:02.763Z,18.50
2022-10-05T15:19:20.777Z,18.27
2022-10-05T15:23:47.366Z,18.42
2022-10-05T15:28:25.753Z,18.29
2022-10-05T15:32:50.877Z,18.23
2022-10-05T15:37:10.604Z,18.24
2022-10-05T15:41:23.621Z,18.17
2022-10-05T15:45:34.100Z,18.12
2022-10-05T15:49:47.293Z,17.97
2022-10-05T15:54:24.104Z,18.11
2022-10-05T15:58:46.961Z,18.06
2022-10-05T16:02:52.601Z,18.20
2022-10-05T16:07:17.623Z,18.03
2022-10-05T16:11:43.063Z,18.02
2022-10-05T16:15:50.032Z,17.85
2022-10-05T16:20:15.052Z,17.76
2022-10-05T16:24:49.877Z,17.79
2022-10-05T16:29:05.252Z,17.97
2022-10-05T16:33:12.464Z,17.90
2022-10-05T16:37:33.241Z,17.81
2022-10-05T16:41:44.030Z,17.87
2022-10-05T16:45:58.785Z,17.91
2022-10-05T16:50:27.652Z,17.82
2022-10-05T16:54:50.113Z,17.85
2022-10-05T16:59:29.250Z,17.58
2022-10-05T17:03:47.687Z,17.62
2022-10-05T17:08:08.474Z,17.46
2022-10-05T17:12:26.675Z,17.49
2022-10-05T17:16:43.558Z,17.55
2022-10-05T17:21:10.692Z,17.57
2022-10-05T17:25:19.270Z,17.49
2022-10-05T17:29:49.824Z,17.53
2022-10-05T17:34:00.247Z,17.35
2022-10-05T17:38:14.409Z,17.39
2022-10-05T17:42:31.220Z,17.36
2022-10-05T17:46:49.550Z,17.43
2022-10-05T17:51:09.710Z,17.46
2022-10-05T17:55:27.372Z,17.39
2022-10-05T17:59:56.749Z,17.40
2022-10-05T18:04:13.194Z,17.32
2022-10-05T18:08:16.400Z,17.33
2022-10-05T18:12:17.934Z,17.46
2022-10-05T18:16:56.278Z,17.40
2022-10-05T18:21:16.439Z,17.53
2022-10-05T18:25:43.579Z,17.51
2022-10-05T18:30:05.578Z,17.42
2022-10-05T18:34:15.429Z,17.46
2022-10-05T18:38:52.852Z,17.51
2022-10-05T18:43:18.280Z,17.38
2022-10-05T18:47:41.015Z,17.34
2022-10-05T18:51:57.840Z,17.19
2022-10-05T18:56:19.078Z,17.40
2022-10-05T19:00:23.352Z,17.30
2022-10-05T19:04:37.616Z,17.20
2022-10-05T19:09:07.309Z,17.23
2022-10-05T19:13:44.437Z,17.17
2022-10-05T19:18:15.028Z,17.28
2022-10-05T19:22:29.428Z,17.22
2022-10-05T19:26:55.623Z,17.16
2022-10-05T19:31:12.101Z,17.17
2022-10-05T19:35:25.219Z,17.06
2022-10-05T19:39:58.087Z,16.97
2022-10-05T19:44:17.442Z,16.66
2022-10-05T19:48:43.029Z,16.89
2022-10-05T19:52:49.143Z,16.98
2022-10-05T19:56:53.995Z,16.99
2022-10-05T20:01:00.858Z,17.02
2022-10-05T20:05:08.415Z,17.01
2022-10-05T20:09:21.118Z,16.97
2022-10-05T20:13:22.901Z,17.03
2022-10-05T20:17:47.812Z,16.80
2022-10-05T20:21:51.578Z,16.91
2022-10-05T20:26:11.971Z,16.79
2022-10-05T20:30:22.599Z,16.76
2022-10-05T20:34:24.191Z,16.87
2022-10-05T20:38:26.091Z,16.67
2022-10-05T20:42:27.803Z,16.72
2022-10-05T20:46:31.127Z,16.60
2022-10-05T20:50:33.126Z,16.57
2022-10-05T20:54:34.712Z,16.58
2022-10-05T20:58:36.289Z,16.64
2022-10-05T21:02:39.373Z,16.63
2022-10-05T21:06:41.048Z,16.52
2022-10-05T21:10:42.475Z,16.52
2022-10-05T21:14:43.980Z,16.57
2022-10-05T21:18:47.385Z,16.72
2022-10-05T21:22:48.843Z,16.88
2022-10-05T21:26:50.331Z,16.76
2022-10-05T21:30:51.835Z,16.69
2022-10-05T21:34:53.262Z,16.83
2022-10-05T21:38:55.520Z,16.68
2022-10-05T21:42:57.003Z,16.95
2022-10-05T21:46:58.878Z,16.98
2022-10-05T21:51:02.178Z,17.05
2022-10-05T21:55:05.290Z,17.21
2022-10-05T21:59:09.808Z,17.03
2022-10-05T22:03:11.252Z,17.00
2022-10-05T22:07:20.520Z,17.00
2022-10-05T22:11:22.053Z,16.81
2022-10-05T22:15:23.474Z,16.99
2022-10-05T22:19:24.985Z,17.07
2022-10-05T22:23:26.428Z,17.22
2022-10-05T22:27:29.268Z,17.22
2022-10-05T22:31:30.758Z,17.24
2022-10-05T22:35:35.798Z,17.00
2022-10-05T22:39:37.201Z,17.22
2022-10-05T22:43:39.148Z,17.19
2022-10-05T22:47:42.241Z,17.08
2022-10-05T22:51:43.805Z,17.14
2022-10-05T22:55:45.283Z,17.13
2022-10-05T22:59:46.740Z,17.10
2022-10-05T23:03:48.166Z,17.05
2022-10-05T23:07:49.615Z,17.18
2022-10-05T23:11:54.146Z,17.18
2022-10-05T23:15:56.116Z,17.14
2022-10-05T23:19:57.859Z,17.21
2022-10-05T23:23:59.268Z,17.36
2022-10-05T23:28:01.781Z,17.27
2022-10-05T23:32:04.318Z,17.33
2022-10-05T23:36:09.243Z,17.41
2022-10-05T23:40:14.133Z,17.43
2022-10-05T23:44:15.603Z,17.54
2022-10-05T23:48:17.100Z,17.44
2022-10-05T23:52:18.515Z,17.47
2022-10-05T23:56:20.021Z,17.54
